sensor_id;sensor_type;location;lat;lon;timestamp;pressure;altitude;pressure_sealevel;temperature;humidity
66668;BME280;57205;51.438;-2.006;2023-07-09T00:01:17;101173.31;;;15.75;100.00
66668;BME280;57205;51.438;-2.006;2023-07-09T00:03:44;101175.50;;;15.73;100.00
66668;BME280;57205;51.438;-2.006;2023-07-09T00:06:10;101167.69;;;15.72;100.00
66668;BME280;57205;51.438;-2.006;2023-07-09T00:08:41;101166.34;;;15.69;100.00
66668;BME280;57205;51.438;-2.006;2023-07-09T00:11:07;101159.34;;;15.68;100.00
66668;BME280;57205;51.438;-2.006;2023-07-09T00:13:33;101169.34;;;15.68;100.00
66668;BME280;57205;51.438;-2.006;2023-07-09T00:16:01;101168.81;;;15.66;100.00
66668;BME280;57205;51.438;-2.006;2023-07-09T00:18:27;101170.69;;;15.65;100.00
66668;BME280;57205;51.438;-2.006;2023-07-09T00:20:53;101177.97;;;15.64;100.00
66668;BME280;57205;51.438;-2.006;2023-07-09T00:23:20;101182.59;;;15.64;100.00
66668;BME280;57205;51.438;-2.006;2023-07-09T00:25:46;101172.88;;;15.63;100.00
66668;BME280;57205;51.438;-2.006;2023-07-09T00:28:16;101176.97;;;15.60;100.00
66668;BME280;57205;51.438;-2.006;2023-07-09T00:30:47;101169.41;;;15.57;100.00
66668;BME280;57205;51.438;-2.006;2023-07-09T00:33:14;101176.69;;;15.57;100.00
66668;BME280;57205;51.438;-2.006;2023-07-09T00:35:42;101168.13;;;15.55;100.00
66668;BME280;57205;51.438;-2.006;2023-07-09T00:38:17;101175.09;;;15.56;100.00
66668;BME280;57205;51.438;-2.006;2023-07-09T00:40:48;101179.41;;;15.57;100.00
66668;BME280;57205;51.438;-2.006;2023-07-09T00:43:15;101179.69;;;15.55;100.00
66668;BME280;57205;51.438;-2.006;2023-07-09T00:45:41;101178.91;;;15.55;100.00
66668;BME280;57205;51.438;-2.006;2023-07-09T00:48:12;101183.78;;;15.53;100.00
66668;BME280;57205;51.438;-2.006;2023-07-09T00:50:49;101182.44;;;15.50;100.00
66668;BME280;57205;51.438;-2.006;2023-07-09T00:53:28;101185.41;;;15.49;100.00
66668;BME280;57205;51.438;-2.006;2023-07-09T00:56:23;101178.41;;;15.48;100.00
66668;BME280;57205;51.438;-2.006;2023-07-09T00:58:52;101170.66;;;15.41;100.00
66668;BME280;57205;51.438;-2.006;2023-07-09T01:01:20;101177.66;;;15.37;100.00
66668;BME280;57205;51.438;-2.006;2023-07-09T01:03:49;101172.31;;;15.32;100.00
66668;BME280;57205;51.438;-2.006;2023-07-09T01:06:19;101177.47;;;15.29;100.00
66668;BME280;57205;51.438;-2.006;2023-07-09T01:08:48;101181.75;;;15.30;100.00
66668;BME280;57205;51.438;-2.006;2023-07-09T01:11:20;101177.72;;;15.27;100.00
66668;BME280;57205;51.438;-2.006;2023-07-09T01:13:49;101181.53;;;15.26;100.00
66668;BME280;57205;51.438;-2.006;2023-07-09T01:16:25;101188.00;;;15.25;100.00
66668;BME280;57205;51.438;-2.006;2023-07-09T01:18:52;101191.78;;;15.24;100.00
66668;BME280;57205;51.438;-2.006;2023-07-09T01:21:18;101186.66;;;15.23;100.00
66668;BME280;57205;51.438;-2.006;2023-07-09T01:23:45;101188.84;;;15.21;100.00
66668;BME280;57205;51.438;-2.006;2023-07-09T01:26:13;101192.88;;;15.18;100.00
66668;BME280;57205;51.438;-2.006;2023-07-09T01:28:39;101194.00;;;15.17;100.00
66668;BME280;57205;51.438;-2.006;2023-07-09T01:31:13;101187.53;;;15.13;100.00
66668;BME280;57205;51.438;-2.006;2023-07-09T01:33:41;101187.00;;;15.11;100.00
66668;BME280;57205;51.438;-2.006;2023-07-09T01:36:10;101188.34;;;15.14;100.00
66668;BME280;57205;51.438;-2.006;2023-07-09T01:38:39;101185.13;;;15.12;100.00
66668;BME280;57205;51.438;-2.006;2023-07-09T01:41:05;101187.00;;;15.11;100.00
66668;BME280;57205;51.438;-2.006;2023-07-09T01:43:33;101177.59;;;15.09;100.00
66668;BME280;57205;51.438;-2.006;2023-07-09T01:46:00;101183.25;;;15.07;100.00
66668;BME280;57205;51.438;-2.006;2023-07-09T01:48:26;101174.13;;;15.03;100.00
66668;BME280;57205;51.438;-2.006;2023-07-09T01:50:53;101166.91;;;14.99;100.00
66668;BME280;57205;51.438;-2.006;2023-07-09T01:53:21;101168.00;;;14.93;100.00
66668;BME280;57205;51.438;-2.006;2023-07-09T01:55:51;101182.03;;;14.90;100.00
66668;BME280;57205;51.438;-2.006;2023-07-09T01:58:17;101175.31;;;14.87;100.00
66668;BME280;57205;51.438;-2.006;2023-07-09T02:00:43;101178.28;;;14.86;100.00
66668;BME280;57205;51.438;-2.006;2023-07-09T02:03:10;101180.47;;;14.84;100.00
66668;BME280;57205;51.438;-2.006;2023-07-09T02:05:36;101177.22;;;14.82;100.00
66668;BME280;57205;51.438;-2.006;2023-07-09T02:08:02;101172.13;;;14.80;100.00
66668;BME280;57205;51.438;-2.006;2023-07-09T02:10:28;101190.69;;;14.82;100.00
66668;BME280;57205;51.438;-2.006;2023-07-09T02:12:53;101186.41;;;14.81;100.00
66668;BME280;57205;51.438;-2.006;2023-07-09T02:15:19;101185.31;;;14.82;100.00
66668;BME280;57205;51.438;-2.006;2023-07-09T02:17:45;101192.59;;;14.81;100.00
66668;BME280;57205;51.438;-2.006;2023-07-09T02:20:11;101200.94;;;14.80;100.00
66668;BME280;57205;51.438;-2.006;2023-07-09T02:22:38;101200.41;;;14.78;100.00
66668;BME280;57205;51.438;-2.006;2023-07-09T02:25:05;101200.13;;;14.79;100.00
66668;BME280;57205;51.438;-2.006;2023-07-09T02:27:31;101191.28;;;14.79;100.00
66668;BME280;57205;51.438;-2.006;2023-07-09T02:29:57;101196.66;;;14.79;100.00
66668;BME280;57205;51.438;-2.006;2023-07-09T02:32:27;101196.13;;;14.77;100.00
66668;BME280;57205;51.438;-2.006;2023-07-09T02:34:53;101198.00;;;14.76;100.00
66668;BME280;57205;51.438;-2.006;2023-07-09T02:37:24;101200.16;;;14.74;100.00
66668;BME280;57205;51.438;-2.006;2023-07-09T02:39:50;101207.19;;;14.70;100.00
66668;BME280;57205;51.438;-2.006;2023-07-09T02:42:18;101203.19;;;14.68;100.00
66668;BME280;57205;51.438;-2.006;2023-07-09T02:44:46;101194.84;;;14.64;100.00
66668;BME280;57205;51.438;-2.006;2023-07-09T02:47:12;101189.75;;;14.57;100.00
66668;BME280;57205;51.438;-2.006;2023-07-09T02:49:38;101186.00;;;14.53;100.00
66668;BME280;57205;51.438;-2.006;2023-07-09T02:52:06;101191.41;;;14.48;100.00
66668;BME280;57205;51.438;-2.006;2023-07-09T02:54:32;101190.34;;;14.44;100.00
66668;BME280;57205;51.438;-2.006;2023-07-09T02:56:57;101186.31;;;14.42;100.00
66668;BME280;57205;51.438;-2.006;2023-07-09T02:59:24;101188.75;;;14.38;100.00
66668;BME280;57205;51.438;-2.006;2023-07-09T03:01:52;101190.13;;;14.36;100.00
66668;BME280;57205;51.438;-2.006;2023-07-09T03:04:17;101199.53;;;14.33;100.00
66668;BME280;57205;51.438;-2.006;2023-07-09T03:06:45;101208.19;;;14.30;100.00
66668;BME280;57205;51.438;-2.006;2023-07-09T03:09:11;101208.72;;;14.27;100.00
66668;BME280;57205;51.438;-2.006;2023-07-09T03:11:36;101202.75;;;14.25;100.00
66668;BME280;57205;51.438;-2.006;2023-07-09T03:14:02;101215.69;;;14.23;100.00
66668;BME280;57205;51.438;-2.006;2023-07-09T03:16:30;101207.09;;;14.21;100.00
66668;BME280;57205;51.438;-2.006;2023-07-09T03:18:56;101206.00;;;14.22;100.00
66668;BME280;57205;51.438;-2.006;2023-07-09T03:21:23;101198.47;;;14.24;100.00
66668;BME280;57205;51.438;-2.006;2023-07-09T03:23:49;101204.38;;;14.26;100.00
66668;BME280;57205;51.438;-2.006;2023-07-09T03:26:15;101197.94;;;14.27;100.00
66668;BME280;57205;51.438;-2.006;2023-07-09T03:28:41;101201.44;;;14.28;100.00
66668;BME280;57205;51.438;-2.006;2023-07-09T03:31:06;101188.22;;;14.26;100.00
66668;BME280;57205;51.438;-2.006;2023-07-09T03:33:32;101201.16;;;14.24;100.00
66668;BME280;57205;51.438;-2.006;2023-07-09T03:36:00;101198.47;;;14.24;100.00
66668;BME280;57205;51.438;-2.006;2023-07-09T03:38:27;101203.56;;;14.26;100.00
66668;BME280;57205;51.438;-2.006;2023-07-09T03:40:53;101205.22;;;14.27;100.00
66668;BME280;57205;51.438;-2.006;2023-07-09T03:43:20;101201.69;;;14.26;100.00
66668;BME280;57205;51.438;-2.006;2023-07-09T03:45:47;101212.47;;;14.26;100.00
66668;BME280;57205;51.438;-2.006;2023-07-09T03:48:14;101207.34;;;14.25;100.00
66668;BME280;57205;51.438;-2.006;2023-07-09T03:50:41;101207.34;;;14.25;100.00
66668;BME280;57205;51.438;-2.006;2023-07-09T03:53:07;101202.53;;;14.27;100.00
66668;BME280;57205;51.438;-2.006;2023-07-09T03:55:33;101196.06;;;14.28;100.00
66668;BME280;57205;51.438;-2.006;2023-07-09T03:57:59;101193.38;;;14.28;100.00
66668;BME280;57205;51.438;-2.006;2023-07-09T04:00:24;101185.53;;;14.31;100.00
66668;BME280;57205;51.438;-2.006;2023-07-09T04:02:51;101187.16;;;14.32;100.00
66668;BME280;57205;51.438;-2.006;2023-07-09T04:05:17;101183.91;;;14.35;100.00
66668;BME280;57205;51.438;-2.006;2023-07-09T04:07:43;101194.41;;;14.37;100.00
66668;BME280;57205;51.438;-2.006;2023-07-09T04:10:09;101216.75;;;14.37;100.00
66668;BME280;57205;51.438;-2.006;2023-07-09T04:12:36;101202.22;;;14.38;100.00
66668;BME280;57205;51.438;-2.006;2023-07-09T04:15:03;101210.84;;;14.35;100.00
66668;BME280;57205;51.438;-2.006;2023-07-09T04:17:29;101217.81;;;14.36;100.00
66668;BME280;57205;51.438;-2.006;2023-07-09T04:19:54;101228.34;;;14.38;100.00
66668;BME280;57205;51.438;-2.006;2023-07-09T04:22:20;101239.13;;;14.38;100.00
66668;BME280;57205;51.438;-2.006;2023-07-09T04:24:46;101235.06;;;14.35;100.00
66668;BME280;57205;51.438;-2.006;2023-07-09T04:27:12;101242.06;;;14.31;100.00
66668;BME280;57205;51.438;-2.006;2023-07-09T04:29:39;101248.56;;;14.30;100.00
66668;BME280;57205;51.438;-2.006;2023-07-09T04:32:07;101248.56;;;14.30;100.00
66668;BME280;57205;51.438;-2.006;2023-07-09T04:34:36;101235.63;;;14.32;100.00
66668;BME280;57205;51.438;-2.006;2023-07-09T04:37:03;101237.22;;;14.33;100.00
66668;BME280;57205;51.438;-2.006;2023-07-09T04:39:29;101226.72;;;14.37;100.00
66668;BME280;57205;51.438;-2.006;2023-07-09T04:41:54;101234.22;;;14.40;100.00
66668;BME280;57205;51.438;-2.006;2023-07-09T04:44:20;101245.53;;;14.42;100.00
66668;BME280;57205;51.438;-2.006;2023-07-09T04:46:45;101231.00;;;14.43;100.00
66668;BME280;57205;51.438;-2.006;2023-07-09T04:49:11;101223.47;;;14.45;100.00
66668;BME280;57205;51.438;-2.006;2023-07-09T04:51:40;101207.03;;;14.46;100.00
66668;BME280;57205;51.438;-2.006;2023-07-09T04:54:05;101222.91;;;14.48;100.00
66668;BME280;57205;51.438;-2.006;2023-07-09T04:56:31;101226.69;;;14.47;100.00
66668;BME280;57205;51.438;-2.006;2023-07-09T04:58:56;101236.38;;;14.48;100.00
66668;BME280;57205;51.438;-2.006;2023-07-09T05:01:22;101239.34;;;14.46;100.00
66668;BME280;57205;51.438;-2.006;2023-07-09T05:03:48;101242.03;;;14.46;100.00
66668;BME280;57205;51.438;-2.006;2023-07-09T05:06:14;101238.25;;;14.47;100.00
66668;BME280;57205;51.438;-2.006;2023-07-09T05:08:42;101231.53;;;14.50;100.00
66668;BME280;57205;51.438;-2.006;2023-07-09T05:11:08;101230.97;;;14.53;100.00
66668;BME280;57205;51.438;-2.006;2023-07-09T05:13:36;101221.81;;;14.54;100.00
66668;BME280;57205;51.438;-2.006;2023-07-09T05:16:03;101226.63;;;14.57;100.00
66668;BME280;57205;51.438;-2.006;2023-07-09T05:18:28;101215.59;;;14.58;100.00
66668;BME280;57205;51.438;-2.006;2023-07-09T05:20:55;101213.19;;;14.62;100.00
66668;BME280;57205;51.438;-2.006;2023-07-09T05:23:21;101217.72;;;14.66;100.00
66668;BME280;57205;51.438;-2.006;2023-07-09T05:25:46;101205.06;;;14.67;100.00
66668;BME280;57205;51.438;-2.006;2023-07-09T05:28:12;101187.56;;;14.70;100.00
66668;BME280;57205;51.438;-2.006;2023-07-09T05:30:42;101205.59;;;14.69;100.00
66668;BME280;57205;51.438;-2.006;2023-07-09T05:33:07;101212.88;;;14.68;100.00
66668;BME280;57205;51.438;-2.006;2023-07-09T05:35:33;101229.03;;;14.68;100.00
66668;BME280;57205;51.438;-2.006;2023-07-09T05:37:59;101260.53;;;14.68;100.00
66668;BME280;57205;51.438;-2.006;2023-07-09T05:40:24;101283.47;;;14.65;100.00
66668;BME280;57205;51.438;-2.006;2023-07-09T05:42:50;101273.50;;;14.61;100.00
66668;BME280;57205;51.438;-2.006;2023-07-09T05:45:16;101275.66;;;14.59;100.00
66668;BME280;57205;51.438;-2.006;2023-07-09T05:47:41;101285.38;;;14.60;100.00
66668;BME280;57205;51.438;-2.006;2023-07-09T05:50:07;101261.38;;;14.58;100.00
66668;BME280;57205;51.438;-2.006;2023-07-09T05:52:33;101269.19;;;14.60;100.00
66668;BME280;57205;51.438;-2.006;2023-07-09T05:54:59;101279.16;;;14.59;100.00
66668;BME280;57205;51.438;-2.006;2023-07-09T05:57:25;101270.81;;;14.61;100.00
66668;BME280;57205;51.438;-2.006;2023-07-09T05:59:51;101271.63;;;14.61;100.00
66668;BME280;57205;51.438;-2.006;2023-07-09T06:02:18;101275.91;;;14.62;100.00
66668;BME280;57205;51.438;-2.006;2023-07-09T06:04:44;101258.97;;;14.62;100.00
66668;BME280;57205;51.438;-2.006;2023-07-09T06:07:12;101270.53;;;14.62;100.00
66668;BME280;57205;51.438;-2.006;2023-07-09T06:09:39;101276.16;;;14.66;100.00
66668;BME280;57205;51.438;-2.006;2023-07-09T06:12:05;101275.34;;;14.71;100.00
66668;BME280;57205;51.438;-2.006;2023-07-09T06:14:31;101273.47;;;14.71;100.00
66668;BME280;57205;51.438;-2.006;2023-07-09T06:16:59;101276.69;;;14.73;100.00
66668;BME280;57205;51.438;-2.006;2023-07-09T06:19:25;101261.84;;;14.76;100.00
66668;BME280;57205;51.438;-2.006;2023-07-09T06:21:50;101263.19;;;14.78;100.00
66668;BME280;57205;51.438;-2.006;2023-07-09T06:24:17;101259.94;;;14.81;100.00
66668;BME280;57205;51.438;-2.006;2023-07-09T06:26:43;101251.03;;;14.86;100.00
66668;BME280;57205;51.438;-2.006;2023-07-09T06:29:08;101238.91;;;14.88;100.00
66668;BME280;57205;51.438;-2.006;2023-07-09T06:31:34;101247.50;;;14.90;100.00
66668;BME280;57205;51.438;-2.006;2023-07-09T06:34:01;101245.34;;;14.92;100.00
66668;BME280;57205;51.438;-2.006;2023-07-09T06:36:27;101242.88;;;14.96;100.00
66668;BME280;57205;51.438;-2.006;2023-07-09T06:38:52;101225.38;;;14.98;100.00
66668;BME280;57205;51.438;-2.006;2023-07-09T06:41:18;101223.50;;;14.99;100.00
66668;BME280;57205;51.438;-2.006;2023-07-09T06:43:45;101212.94;;;15.02;100.00
66668;BME280;57205;51.438;-2.006;2023-07-09T06:46:14;101231.53;;;15.04;100.00
66668;BME280;57205;51.438;-2.006;2023-07-09T06:48:39;101236.09;;;15.08;100.00
66668;BME280;57205;51.438;-2.006;2023-07-09T06:51:05;101242.81;;;15.11;100.00
66668;BME280;57205;51.438;-2.006;2023-07-09T06:53:32;101254.69;;;15.10;100.00
66668;BME280;57205;51.438;-2.006;2023-07-09T06:55:58;101271.16;;;15.08;100.00
66668;BME280;57205;51.438;-2.006;2023-07-09T06:58:29;101275.19;;;15.06;100.00
66668;BME280;57205;51.438;-2.006;2023-07-09T07:00:57;101283.53;;;15.09;100.00
66668;BME280;57205;51.438;-2.006;2023-07-09T07:03:24;101294.84;;;15.11;100.00
66668;BME280;57205;51.438;-2.006;2023-07-09T07:05:52;101303.75;;;15.12;100.00
66668;BME280;57205;51.438;-2.006;2023-07-09T07:08:23;101329.06;;;15.11;100.00
66668;BME280;57205;51.438;-2.006;2023-07-09T07:10:50;101325.59;;;15.10;100.00
66668;BME280;57205;51.438;-2.006;2023-07-09T07:13:23;101330.69;;;15.12;100.00
66668;BME280;57205;51.438;-2.006;2023-07-09T07:15:49;101324.22;;;15.13;100.00
66668;BME280;57205;51.438;-2.006;2023-07-09T07:18:17;101322.31;;;15.13;100.00
66668;BME280;57205;51.438;-2.006;2023-07-09T07:20:44;101320.97;;;15.16;100.00
66668;BME280;57205;51.438;-2.006;2023-07-09T07:23:10;101303.66;;;15.22;100.00
66668;BME280;57205;51.438;-2.006;2023-07-09T07:25:35;101288.03;;;15.29;100.00
66668;BME280;57205;51.438;-2.006;2023-07-09T07:28:01;101291.22;;;15.36;100.00
66668;BME280;57205;51.438;-2.006;2023-07-09T07:30:27;101283.63;;;15.43;100.00
66668;BME280;57205;51.438;-2.006;2023-07-09T07:32:53;101264.94;;;15.51;100.00
66668;BME280;57205;51.438;-2.006;2023-07-09T07:35:19;101269.75;;;15.59;100.00
66668;BME280;57205;51.438;-2.006;2023-07-09T07:37:44;101262.38;;;15.70;100.00
66668;BME280;57205;51.438;-2.006;2023-07-09T07:40:10;101267.19;;;15.78;100.00
66668;BME280;57205;51.438;-2.006;2023-07-09T07:42:36;101260.63;;;15.89;100.00
66668;BME280;57205;51.438;-2.006;2023-07-09T07:45:03;101251.38;;;15.95;100.00
66668;BME280;57205;51.438;-2.006;2023-07-09T07:47:29;101245.88;;;16.05;100.00
66668;BME280;57205;51.438;-2.006;2023-07-09T07:49:56;101244.19;;;16.14;100.00
66668;BME280;57205;51.438;-2.006;2023-07-09T07:52:22;101250.56;;;16.23;100.00
66668;BME280;57205;51.438;-2.006;2023-07-09T07:54:47;101253.66;;;16.35;100.00
66668;BME280;57205;51.438;-2.006;2023-07-09T07:57:13;101253.06;;;16.43;100.00
66668;BME280;57205;51.438;-2.006;2023-07-09T07:59:39;101259.47;;;16.52;100.00
66668;BME280;57205;51.438;-2.006;2023-07-09T08:02:06;101248.59;;;16.57;100.00
66668;BME280;57205;51.438;-2.006;2023-07-09T08:04:35;101235.81;;;16.63;100.00
66668;BME280;57205;51.438;-2.006;2023-07-09T08:07:00;101235.94;;;16.77;100.00
66668;BME280;57205;51.438;-2.006;2023-07-09T08:09:26;101231.13;;;16.92;100.00
66668;BME280;57205;51.438;-2.006;2023-07-09T08:11:52;101227.97;;;17.04;100.00
66668;BME280;57205;51.438;-2.006;2023-07-09T08:14:18;101225.78;;;17.24;100.00
66668;BME280;57205;51.438;-2.006;2023-07-09T08:16:43;101219.84;;;17.41;100.00
66668;BME280;57205;51.438;-2.006;2023-07-09T08:19:09;101229.38;;;17.57;100.00
66668;BME280;57205;51.438;-2.006;2023-07-09T08:21:34;101230.16;;;17.76;100.00
66668;BME280;57205;51.438;-2.006;2023-07-09T08:24:00;101223.56;;;17.96;100.00
66668;BME280;57205;51.438;-2.006;2023-07-09T08:26:26;101215.97;;;18.25;100.00
66668;BME280;57205;51.438;-2.006;2023-07-09T08:28:51;101209.78;;;18.52;100.00
66668;BME280;57205;51.438;-2.006;2023-07-09T08:31:17;101195.47;;;18.87;100.00
66668;BME280;57205;51.438;-2.006;2023-07-09T08:33:44;101182.97;;;19.35;100.00
66668;BME280;57205;51.438;-2.006;2023-07-09T08:36:09;101178.13;;;19.76;100.00
66668;BME280;57205;51.438;-2.006;2023-07-09T08:38:35;101174.16;;;20.52;100.00
66668;BME280;57205;51.438;-2.006;2023-07-09T08:44:12;101167.03;;;22.84;100.00
66668;BME280;57205;51.438;-2.006;2023-07-09T08:49:19;101153.03;;;24.52;97.43
66668;BME280;57205;51.438;-2.006;2023-07-09T08:51:47;101161.31;;;24.80;96.50
66668;BME280;57205;51.438;-2.006;2023-07-09T08:54:39;101152.00;;;25.36;89.38
66668;BME280;57205;51.438;-2.006;2023-07-09T08:57:48;101152.50;;;25.85;76.50
66668;BME280;57205;51.438;-2.006;2023-07-09T09:03:11;101164.94;;;26.10;73.52
66668;BME280;57205;51.438;-2.006;2023-07-09T09:05:41;101167.16;;;26.55;70.03
66668;BME280;57205;51.438;-2.006;2023-07-09T09:08:26;101158.56;;;27.10;64.45
66668;BME280;57205;51.438;-2.006;2023-07-09T09:11:04;101161.31;;;27.29;62.04
66668;BME280;57205;51.438;-2.006;2023-07-09T09:13:33;101166.97;;;28.01;61.72
66668;BME280;57205;51.438;-2.006;2023-07-09T09:16:05;101171.78;;;28.30;57.20
66668;BME280;57205;51.438;-2.006;2023-07-09T09:18:40;101170.78;;;28.41;56.18
66668;BME280;57205;51.438;-2.006;2023-07-09T09:21:25;101163.47;;;28.78;55.55
66668;BME280;57205;51.438;-2.006;2023-07-09T09:23:56;101166.38;;;28.89;52.16
66668;BME280;57205;51.438;-2.006;2023-07-09T09:26:36;101173.13;;;28.95;48.17
66668;BME280;57205;51.438;-2.006;2023-07-09T09:29:24;101157.00;;;28.67;48.45
66668;BME280;57205;51.438;-2.006;2023-07-09T09:31:53;101157.88;;;28.71;51.53
66668;BME280;57205;51.438;-2.006;2023-07-09T09:34:27;101158.66;;;28.72;48.00
66668;BME280;57205;51.438;-2.006;2023-07-09T09:36:54;101145.31;;;28.74;49.22
66668;BME280;57205;51.438;-2.006;2023-07-09T09:39:23;101155.44;;;28.66;48.59
66668;BME280;57205;51.438;-2.006;2023-07-09T09:41:55;101156.97;;;28.64;48.68
66668;BME280;57205;51.438;-2.006;2023-07-09T09:44:29;101146.63;;;28.54;50.07
66668;BME280;57205;51.438;-2.006;2023-07-09T09:46:57;101142.47;;;28.67;47.11
66668;BME280;57205;51.438;-2.006;2023-07-09T09:49:24;101151.16;;;28.43;48.83
66668;BME280;57205;51.438;-2.006;2023-07-09T09:51:49;101147.09;;;28.89;48.28
66668;BME280;57205;51.438;-2.006;2023-07-09T09:54:22;101152.31;;;28.98;46.96
66668;BME280;57205;51.438;-2.006;2023-07-09T09:56:50;101162.09;;;28.95;47.14
66668;BME280;57205;51.438;-2.006;2023-07-09T09:59:32;101167.66;;;28.99;48.25
66668;BME280;57205;51.438;-2.006;2023-07-09T10:02:00;101166.97;;;29.05;47.16
66668;BME280;57205;51.438;-2.006;2023-07-09T10:04:28;101159.78;;;29.30;47.68
66668;BME280;57205;51.438;-2.006;2023-07-09T10:07:03;101154.34;;;29.34;47.18
66668;BME280;57205;51.438;-2.006;2023-07-09T10:14:59;101160.63;;;29.34;49.49
66668;BME280;57205;51.438;-2.006;2023-07-09T10:19:59;101153.44;;;29.63;47.62
66668;BME280;57205;51.438;-2.006;2023-07-09T10:22:40;101151.69;;;29.11;48.93
66668;BME280;57205;51.438;-2.006;2023-07-09T10:25:40;101149.97;;;28.70;50.52
66668;BME280;57205;51.438;-2.006;2023-07-09T10:39:21;101151.59;;;26.43;64.19
66668;BME280;57205;51.438;-2.006;2023-07-09T10:41:50;101151.31;;;26.14;67.17
66668;BME280;57205;51.438;-2.006;2023-07-09T10:44:21;101152.94;;;26.34;64.81
66668;BME280;57205;51.438;-2.006;2023-07-09T10:46:57;101146.34;;;26.69;62.68
66668;BME280;57205;51.438;-2.006;2023-07-09T10:49:30;101156.03;;;26.82;61.97
66668;BME280;57205;51.438;-2.006;2023-07-09T10:52:23;101154.88;;;27.02;60.69
66668;BME280;57205;51.438;-2.006;2023-07-09T10:55:02;101162.47;;;27.09;59.38
66668;BME280;57205;51.438;-2.006;2023-07-09T11:00:14;101143.75;;;26.42;64.45
66668;BME280;57205;51.438;-2.006;2023-07-09T11:02:42;101151.41;;;26.52;66.39
66668;BME280;57205;51.438;-2.006;2023-07-09T11:05:08;101149.31;;;26.80;67.84
66668;BME280;57205;51.438;-2.006;2023-07-09T11:10:36;101142.94;;;27.33;58.86
66668;BME280;57205;51.438;-2.006;2023-07-09T11:13:10;101132.97;;;27.44;59.51
66668;BME280;57205;51.438;-2.006;2023-07-09T11:15:40;101129.00;;;27.42;59.08
66668;BME280;57205;51.438;-2.006;2023-07-09T11:18:10;101135.28;;;27.23;60.34
66668;BME280;57205;51.438;-2.006;2023-07-09T11:20:43;101136.84;;;26.67;61.05
66668;BME280;57205;51.438;-2.006;2023-07-09T11:23:19;101135.75;;;26.37;62.89
66668;BME280;57205;51.438;-2.006;2023-07-09T11:26:03;101133.34;;;26.16;66.44
66668;BME280;57205;51.438;-2.006;2023-07-09T11:28:39;101140.31;;;25.98;70.57
66668;BME280;57205;51.438;-2.006;2023-07-09T11:33:47;101136.41;;;25.52;72.07
66668;BME280;57205;51.438;-2.006;2023-07-09T11:36:25;101130.03;;;25.21;73.22
66668;BME280;57205;51.438;-2.006;2023-07-09T11:38:53;101135.06;;;24.91;77.10
66668;BME280;57205;51.438;-2.006;2023-07-09T11:41:40;101142.84;;;24.77;79.77
66668;BME280;57205;51.438;-2.006;2023-07-09T11:49:27;101133.00;;;24.88;78.76
66668;BME280;57205;51.438;-2.006;2023-07-09T11:52:04;101132.56;;;24.86;81.18
66668;BME280;57205;51.438;-2.006;2023-07-09T11:54:35;101141.25;;;24.76;81.58
66668;BME280;57205;51.438;-2.006;2023-07-09T11:57:02;101147.78;;;24.47;91.53
66668;BME280;57205;51.438;-2.006;2023-07-09T11:59:29;101157.78;;;23.83;99.65
66668;BME280;57205;51.438;-2.006;2023-07-09T12:01:54;101165.50;;;23.36;100.00
66668;BME280;57205;51.438;-2.006;2023-07-09T12:04:31;101164.44;;;23.08;100.00
66668;BME280;57205;51.438;-2.006;2023-07-09T12:07:01;101162.91;;;22.98;100.00
66668;BME280;57205;51.438;-2.006;2023-07-09T12:09:37;101156.69;;;22.98;100.00
66668;BME280;57205;51.438;-2.006;2023-07-09T12:12:21;101155.06;;;22.97;100.00
66668;BME280;57205;51.438;-2.006;2023-07-09T12:14:48;101149.94;;;23.16;100.00
66668;BME280;57205;51.438;-2.006;2023-07-09T12:17:15;101156.06;;;23.13;100.00
66668;BME280;57205;51.438;-2.006;2023-07-09T12:19:41;101151.31;;;23.22;100.00
66668;BME280;57205;51.438;-2.006;2023-07-09T12:22:20;101161.84;;;23.32;100.00
66668;BME280;57205;51.438;-2.006;2023-07-09T12:24:48;101158.81;;;23.46;100.00
66668;BME280;57205;51.438;-2.006;2023-07-09T12:27:23;101154.88;;;23.55;100.00
66668;BME280;57205;51.438;-2.006;2023-07-09T12:29:56;101147.38;;;23.52;99.96
66668;BME280;57205;51.438;-2.006;2023-07-09T12:32:22;101143.75;;;23.72;98.99
66668;BME280;57205;51.438;-2.006;2023-07-09T12:34:53;101149.38;;;24.00;98.08
66668;BME280;57205;51.438;-2.006;2023-07-09T12:37:20;101152.47;;;24.10;95.90
66668;BME280;57205;51.438;-2.006;2023-07-09T12:39:50;101148.72;;;24.15;97.13
66668;BME280;57205;51.438;-2.006;2023-07-09T12:42:25;101139.25;;;24.25;97.31
66668;BME280;57205;51.438;-2.006;2023-07-09T12:44:54;101141.06;;;24.45;97.13
66668;BME280;57205;51.438;-2.006;2023-07-09T12:47:20;101135.94;;;24.43;97.66
66668;BME280;57205;51.438;-2.006;2023-07-09T12:49:48;101135.84;;;24.28;97.22
66668;BME280;57205;51.438;-2.006;2023-07-09T12:52:21;101125.94;;;24.11;97.10
66668;BME280;57205;51.438;-2.006;2023-07-09T12:55:00;101136.88;;;24.11;91.46
66668;BME280;57205;51.438;-2.006;2023-07-09T12:57:26;101138.41;;;23.88;94.10
66668;BME280;57205;51.438;-2.006;2023-07-09T12:59:54;101137.28;;;23.89;94.52
66668;BME280;57205;51.438;-2.006;2023-07-09T13:02:25;101137.16;;;23.97;95.46
66668;BME280;57205;51.438;-2.006;2023-07-09T13:04:59;101130.94;;;24.09;95.48
66668;BME280;57205;51.438;-2.006;2023-07-09T13:07:35;101119.97;;;24.33;94.97
66668;BME280;57205;51.438;-2.006;2023-07-09T13:10:30;101121.56;;;24.46;93.13
66668;BME280;57205;51.438;-2.006;2023-07-09T13:13:00;101114.13;;;24.59;92.67
66668;BME280;57205;51.438;-2.006;2023-07-09T13:15:38;101106.91;;;24.66;93.30
66668;BME280;57205;51.438;-2.006;2023-07-09T13:18:06;101099.38;;;24.75;90.58
66668;BME280;57205;51.438;-2.006;2023-07-09T13:20:34;101102.31;;;24.82;88.61
66668;BME280;57205;51.438;-2.006;2023-07-09T13:23:12;101102.00;;;24.84;88.21